createdAt,value
2022-08-04T00:01:15.572Z,4.50
2022-08-04T00:03:51.152Z,4.43
2022-08-04T00:06:37.325Z,4.72
2022-08-04T00:09:15.270Z,4.30
2022-08-04T00:11:49.059Z,5.13
2022-08-04T00:14:19.807Z,4.35
2022-08-04T00:16:52.545Z,4.80
2022-08-04T00:19:43.575Z,4.68
2022-08-04T00:22:17.066Z,4.43
2022-08-04T00:24:47.797Z,5.20
2022-08-04T00:27:18.539Z,4.38
2022-08-04T00:29:53.030Z,4.28
2022-08-04T00:32:34.073Z,4.20
2022-08-04T00:35:05.414Z,4.22
2022-08-04T00:37:40.444Z,4.68
2022-08-04T00:40:23.668Z,4.47
2022-08-04T00:43:01.541Z,4.40
2022-08-04T00:46:16.655Z,5.00
2022-08-04T00:49:05.796Z,4.43
2022-08-04T00:52:32.637Z,4.70
2022-08-04T00:55:01.163Z,4.30
2022-08-04T00:57:43.213Z,5.05
2022-08-04T01:00:15.561Z,4.68
2022-08-04T01:03:04.813Z,4.50
2022-08-04T01:05:43.691Z,4.65
2022-08-04T01:08:29.616Z,4.40
2022-08-04T01:11:11.882Z,4.15
2022-08-04T01:13:59.347Z,3.53
2022-08-04T01:16:30.661Z,4.00
2022-08-04T01:19:03.706Z,3.70
2022-08-04T01:22:17.941Z,3.72
2022-08-04T01:25:23.367Z,4.00
2022-08-04T01:28:25.936Z,3.83
2022-08-04T01:31:01.374Z,3.45
2022-08-04T01:33:33.040Z,4.13
2022-08-04T01:36:27.663Z,4.30
2022-08-04T01:38:58.371Z,4.07
2022-08-04T01:41:32.924Z,4.05
2022-08-04T01:44:05.789Z,4.22
2022-08-04T01:46:39.325Z,4.45
2022-08-04T01:49:10.337Z,4.20
2022-08-04T01:51:42.679Z,4.18
2022-08-04T01:54:13.295Z,4.93
2022-08-04T01:56:45.201Z,4.53
2022-08-04T01:59:20.576Z,4.60
2022-08-04T02:01:53.154Z,4.68
2022-08-04T02:04:23.951Z,4.70
2022-08-04T02:07:05.590Z,4.30
2022-08-04T02:09:53.651Z,4.50
2022-08-04T02:12:30.249Z,4.80
2022-08-04T02:15:09.424Z,5.43
2022-08-04T02:17:55.508Z,4.90
2022-08-04T02:20:27.684Z,4.68
2022-08-04T02:23:02.744Z,4.57
2022-08-04T02:25:37.178Z,5.20
2022-08-04T02:28:22.362Z,5.15
2022-08-04T02:31:04.192Z,5.05
2022-08-04T02:33:43.727Z,5.70
2022-08-04T02:36:19.627Z,5.18
2022-08-04T02:38:59.015Z,5.10
2022-08-04T02:41:30.404Z,5.05
2022-08-04T02:44:02.819Z,5.00
2022-08-04T02:46:34.739Z,5.18
2022-08-04T02:49:09.462Z,5.53
2022-08-04T02:51:41.096Z,5.63
2022-08-04T02:54:11.462Z,6.30
2022-08-04T02:56:42.470Z,5.93
2022-08-04T02:59:14.728Z,5.07
2022-08-04T03:01:57.890Z,5.57
2022-08-04T03:04:48.820Z,5.47
2022-08-04T03:07:49.201Z,5.20
2022-08-04T03:10:32.435Z,6.43
2022-08-04T03:13:34.795Z,5.20
2022-08-04T03:16:25.354Z,4.55
2022-08-04T03:19:51.532Z,5.50
2022-08-04T03:23:11.728Z,4.85
2022-08-04T03:26:17.635Z,5.60
2022-08-04T03:29:36.727Z,4.93
2022-08-04T03:32:42.417Z,4.65
2022-08-04T03:35:42.833Z,4.97
2022-08-04T03:38:31.930Z,5.70
2022-08-04T03:41:51.693Z,4.90
2022-08-04T03:45:01.337Z,5.20
2022-08-04T03:48:03.125Z,5.25
2022-08-04T03:51:34.977Z,5.72
2022-08-04T03:54:33.545Z,5.35
2022-08-04T03:57:25.454Z,5.57
2022-08-04T04:00:11.620Z,4.90
2022-08-04T04:03:04.447Z,4.88
2022-08-04T04:05:59.712Z,5.20
2022-08-04T04:08:51.402Z,5.28
2022-08-04T04:11:57.251Z,4.82
2022-08-04T04:14:56.749Z,4.82
2022-08-04T04:18:03.444Z,5.45
2022-08-04T04:20:59.392Z,5.63
2022-08-04T04:23:51.966Z,6.45
2022-08-04T04:26:41.166Z,5.82
2022-08-04T04:29:54.900Z,5.35
2022-08-04T04:32:30.749Z,5.03
2022-08-04T04:35:14.793Z,5.40
2022-08-04T04:38:15.344Z,5.22
2022-08-04T04:41:02.792Z,5.57
2022-08-04T04:44:17.128Z,5.07
2022-08-04T04:46:52.328Z,4.38
2022-08-04T04:49:31.966Z,4.60
2022-08-04T04:52:09.375Z,4.53
2022-08-04T04:54:48.856Z,4.45
2022-08-04T04:57:53.081Z,4.70
2022-08-04T05:00:14.076Z,4.82
2022-08-04T05:03:19.111Z,4.55
2022-08-04T05:06:11.420Z,5.30
2022-08-04T05:09:10.720Z,4.53
2022-08-04T05:14:30.008Z,5.20
2022-08-04T05:15:06.842Z,5.05
2022-08-04T05:17:39.646Z,4.93
2022-08-04T05:20:13.034Z,4.22
2022-08-04T05:22:48.234Z,4.20
2022-08-04T05:25:24.053Z,4.13
2022-08-04T05:28:00.775Z,3.45
2022-08-04T05:30:33.347Z,3.35
2022-08-04T05:33:07.411Z,3.20
2022-08-04T05:36:17.915Z,3.58
2022-08-04T05:38:38.427Z,4.82
2022-08-04T05:41:09.391Z,4.20
2022-08-04T05:43:45.500Z,3.92
2022-08-04T05:46:18.362Z,4.05
2022-08-04T05:48:48.636Z,4.00
2022-08-04T05:51:19.279Z,4.97
2022-08-04T05:53:49.489Z,4.72
2022-08-04T05:56:20.803Z,5.30
2022-08-04T05:58:56.049Z,4.25
2022-08-04T06:01:27.361Z,4.53
2022-08-04T06:03:59.035Z,5.05
2022-08-04T06:06:29.695Z,4.45
2022-08-04T06:08:59.563Z,4.53
2022-08-04T06:11:32.832Z,4.57
2022-08-04T06:14:27.036Z,4.50
2022-08-04T06:16:58.710Z,3.95
2022-08-04T06:20:02.256Z,5.20
2022-08-04T06:22:22.643Z,4.97
2022-08-04T06:24:58.160Z,4.80
2022-08-04T06:27:29.011Z,5.07
2022-08-04T06:30:06.221Z,4.80
2022-08-04T06:32:47.811Z,6.18
2022-08-04T06:35:19.560Z,5.07
2022-08-04T06:37:50.880Z,4.78
2022-08-04T06:40:30.561Z,5.72
2022-08-04T06:43:03.486Z,5.13
2022-08-04T06:45:38.627Z,4.25
2022-08-04T06:48:10.171Z,4.25
2022-08-04T06:51:31.982Z,5.22
2022-08-04T06:53:30.997Z,5.32
2022-08-04T06:56:02.359Z,5.85
2022-08-04T06:58:34.800Z,5.28
2022-08-04T07:01:08.226Z,5.57
2022-08-04T07:03:39.330Z,5.18
2022-08-04T07:06:14.722Z,5.35
2022-08-04T07:08:45.594Z,5.03
2022-08-04T07:11:15.892Z,5.78
2022-08-04T07:13:46.719Z,5.10
2022-08-04T07:16:21.105Z,5.40
2022-08-04T07:19:09.798Z,4.60
2022-08-04T07:21:42.329Z,4.32
2022-08-04T07:24:36.009Z,4.53
2022-08-04T07:27:06.512Z,3.88
2022-08-04T07:29:36.352Z,4.28
2022-08-04T07:32:11.120Z,3.55
2022-08-04T07:34:41.910Z,4.15
2022-08-04T07:37:12.532Z,4.63
2022-08-04T07:39:48.397Z,3.30
2022-08-04T07:42:22.086Z,4.35
2022-08-04T07:44:52.138Z,3.67
2022-08-04T07:47:25.665Z,3.58
2022-08-04T07:49:57.593Z,4.63
2022-08-04T07:52:28.740Z,3.90
2022-08-04T07:54:59.018Z,3.25
2022-08-04T07:57:40.953Z,3.88
2022-08-04T08:00:15.214Z,3.58
2022-08-04T08:02:51.223Z,4.13
2022-08-04T08:05:22.262Z,4.20
2022-08-04T08:07:54.799Z,3.88
2022-08-04T08:10:24.881Z,4.35
2022-08-04T08:12:55.776Z,4.63
2022-08-04T08:15:25.962Z,4.07
2022-08-04T08:18:00.700Z,3.58
2022-08-04T08:20:34.649Z,2.95
2022-08-04T08:23:05.777Z,3.20
2022-08-04T08:25:36.769Z,2.38
2022-08-04T08:28:07.895Z,2.92
2022-08-04T08:30:38.485Z,3.28
2022-08-04T08:33:17.992Z,3.08
2022-08-04T08:35:55.074Z,3.38
2022-08-04T08:38:41.508Z,3.60
2022-08-04T08:41:46.614Z,3.20
2022-08-04T08:44:45.846Z,2.78
2022-08-04T08:47:30.315Z,2.20
2022-08-04T08:50:40.046Z,3.78
2022-08-04T08:53:27.566Z,3.05
2022-08-04T08:56:08.399Z,2.72
2022-08-04T08:58:50.780Z,2.83
2022-08-04T09:01:37.648Z,3.35
2022-08-04T09:04:40.050Z,2.72
2022-08-04T09:07:30.945Z,3.47
2022-08-04T09:10:15.203Z,2.75
2022-08-04T09:12:53.436Z,2.55
2022-08-04T09:15:32.853Z,2.80
2022-08-04T09:18:08.516Z,2.63
2022-08-04T09:20:42.825Z,2.60
2022-08-04T09:23:23.376Z,2.20
2022-08-04T09:25:59.726Z,3.03
2022-08-04T09:28:53.130Z,2.80
2022-08-04T09:31:26.082Z,2.75
2022-08-04T09:34:07.499Z,3.00
2022-08-04T09:36:44.177Z,2.40
2022-08-04T09:39:27.676Z,2.17
2022-08-04T09:42:10.041Z,2.05
2022-08-04T09:44:56.414Z,1.65
2022-08-04T09:47:39.384Z,1.88
2022-08-04T09:50:24.116Z,1.98
2022-08-04T09:53:14.127Z,1.60
2022-08-04T09:56:03.245Z,2.00
2022-08-04T09:58:48.926Z,2.30
2022-08-04T10:01:23.622Z,1.77
2022-08-04T10:03:57.889Z,2.00
2022-08-04T10:06:50.466Z,1.75
2022-08-04T10:09:35.436Z,1.50
2022-08-04T10:12:24.473Z,1.75
2022-08-04T10:14:56.701Z,1.20
2022-08-04T10:17:43.623Z,1.70
2022-08-04T10:20:35.960Z,1.40
2022-08-04T10:23:56.214Z,1.30
2022-08-04T10:26:37.914Z,1.40
2022-08-04T10:29:17.452Z,1.20
2022-08-04T10:31:51.307Z,1.25
2022-08-04T10:34:25.348Z,1.10
2022-08-04T10:37:15.346Z,1.02
2022-08-04T10:40:07.553Z,0.80
2022-08-04T10:42:43.170Z,1.08
2022-08-04T10:45:22.516Z,1.10
2022-08-04T10:48:10.847Z,1.25
2022-08-04T10:50:45.430Z,1.02
2022-08-04T10:53:21.161Z,1.40
2022-08-04T10:56:06.580Z,1.27
2022-08-04T10:58:47.306Z,1.40
2022-08-04T11:02:00.758Z,1.35
2022-08-04T11:04:34.452Z,1.00
2022-08-04T11:07:05.011Z,1.33
2022-08-04T11:09:36.592Z,1.00
2022-08-04T11:12:12.812Z,1.30
2022-08-04T11:14:49.867Z,1.45
2022-08-04T11:17:25.756Z,1.90
2022-08-04T11:20:24.857Z,1.80
2022-08-04T11:23:01.366Z,1.48
2022-08-04T11:25:36.836Z,2.00
2022-08-04T11:28:14.127Z,1.30
2022-08-04T11:30:50.424Z,1.83
2022-08-04T11:33:30.274Z,1.73
2022-08-04T11:36:11.346Z,1.73
2022-08-04T11:38:51.833Z,1.55
2022-08-04T11:41:25.031Z,1.60
2022-08-04T11:44:03.864Z,1.40
2022-08-04T11:46:45.898Z,1.55
2022-08-04T11:49:25.434Z,1.15
2022-08-04T11:51:58.727Z,1.40
2022-08-04T11:54:28.616Z,1.33
2022-08-04T11:56:58.982Z,1.30
2022-08-04T11:59:31.565Z,1.55
2022-08-04T12:02:21.234Z,1.13
2022-08-04T12:05:00.608Z,1.40
2022-08-04T12:07:44.290Z,1.40
2022-08-04T12:10:41.854Z,1.40
2022-08-04T12:13:23.716Z,1.30
2022-08-04T12:16:17.795Z,1.23
2022-08-04T12:18:53.552Z,1.50
2022-08-04T12:21:34.707Z,1.48
2022-08-04T12:24:08.947Z,1.73
2022-08-04T12:26:45.570Z,1.83
2022-08-04T12:29:19.273Z,1.85
2022-08-04T12:31:54.004Z,2.17
2022-08-04T12:34:31.214Z,1.75
2022-08-04T12:37:07.836Z,2.05
2022-08-04T12:40:27.405Z,1.90
2022-08-04T12:42:35.612Z,1.95
2022-08-04T12:45:11.545Z,2.05
2022-08-04T12:47:43.299Z,1.85
2022-08-04T12:50:16.922Z,2.08
2022-08-04T12:53:02.283Z,2.22
2022-08-04T12:55:35.707Z,3.10
2022-08-04T12:58:07.297Z,2.92
2022-08-04T13:00:41.719Z,2.33
2022-08-04T13:03:14.512Z,2.50
2022-08-04T13:05:45.737Z,2.42
2022-08-04T13:08:22.857Z,2.40
2022-08-04T13:10:55.967Z,2.85
2022-08-04T13:13:29.816Z,2.38
2022-08-04T13:16:01.840Z,2.42
2022-08-04T13:18:33.148Z,1.90
2022-08-04T13:21:19.920Z,2.55
2022-08-04T13:24:20.619Z,2.92
2022-08-04T13:26:55.623Z,3.50
2022-08-04T13:29:59.807Z,3.28
2022-08-04T13:32:23.218Z,3.78
2022-08-04T13:34:58.996Z,3.83
2022-08-04T13:37:35.168Z,4.00
2022-08-04T13:40:12.144Z,3.63
2022-08-04T13:42:43.195Z,3.83
2022-08-04T13:45:14.441Z,3.75
2022-08-04T13:47:45.469Z,3.80
2022-08-04T13:50:20.480Z,4.60
2022-08-04T13:52:54.005Z,4.20
2022-08-04T13:55:31.428Z,5.18
2022-08-04T13:58:07.025Z,4.20
2022-08-04T14:00:47.378Z,2.92
2022-08-04T14:03:24.966Z,3.15
2022-08-04T14:06:27.045Z,2.97
2022-08-04T14:08:58.681Z,2.70
2022-08-04T14:12:09.879Z,3.20
2022-08-04T14:14:30.515Z,3.45
2022-08-04T14:17:02.738Z,3.10
2022-08-04T14:19:50.257Z,3.25
2022-08-04T14:22:39.385Z,3.58
2022-08-04T14:25:15.562Z,3.38
2022-08-04T14:27:52.844Z,2.60
2022-08-04T14:30:31.634Z,2.42
2022-08-04T14:34:01.759Z,2.30
2022-08-04T14:36:04.133Z,2.10
2022-08-04T14:38:56.443Z,2.75
2022-08-04T14:41:32.758Z,2.30
2022-08-04T14:44:07.120Z,2.25
2022-08-04T14:46:53.181Z,2.20
2022-08-04T14:49:23.290Z,2.53
2022-08-04T14:51:57.456Z,2.20
2022-08-04T14:54:32.819Z,2.10
2022-08-04T14:57:06.296Z,1.73
2022-08-04T15:00:01.427Z,1.65
2022-08-04T15:02:34.110Z,1.60
2022-08-04T15:06:01.007Z,1.50
2022-08-04T15:07:56.435Z,1.70
2022-08-04T15:10:26.222Z,1.60
2022-08-04T15:12:56.644Z,1.40
2022-08-04T15:15:37.045Z,1.70
2022-08-04T15:18:10.528Z,1.20
2022-08-04T15:20:42.464Z,1.48
2022-08-04T15:23:12.311Z,1.70
2022-08-04T15:25:45.351Z,1.60
2022-08-04T15:28:25.400Z,1.60
2022-08-04T15:30:58.964Z,1.45
2022-08-04T15:33:33.687Z,1.63
2022-08-04T15:36:15.733Z,1.30
2022-08-04T15:39:03.883Z,1.40
2022-08-04T15:41:46.478Z,1.50
2022-08-04T15:44:49.157Z,1.40
2022-08-04T15:47:21.742Z,1.50
2022-08-04T15:50:06.657Z,1.60
2022-08-04T15:53:12.421Z,1.73
2022-08-04T15:55:44.963Z,1.63
2022-08-04T15:58:19.472Z,1.50
2022-08-04T16:01:19.763Z,1.17
2022-08-04T16:03:59.830Z,1.60
2022-08-04T16:07:07.030Z,1.45
2022-08-04T16:09:45.846Z,1.20
2022-08-04T16:12:57.013Z,1.35
2022-08-04T16:15:44.077Z,1.50
2022-08-04T16:18:26.772Z,1.52
2022-08-04T16:21:06.404Z,1.45
2022-08-04T16:24:08.522Z,1.70
2022-08-04T16:26:54.770Z,1.60
2022-08-04T16:29:35.304Z,1.70
2022-08-04T16:32:39.050Z,1.60
2022-08-04T16:35:22.168Z,1.60
2022-08-04T16:37:57.742Z,1.60
2022-08-04T16:40:38.199Z,1.60
2022-08-04T16:43:13.326Z,1.80
2022-08-04T16:45:54.018Z,1.90
2022-08-04T16:48:27.007Z,1.83
2022-08-04T16:51:06.715Z,1.98
2022-08-04T16:54:02.930Z,1.90
2022-08-04T16:56:34.470Z,1.98
2022-08-04T16:59:12.268Z,1.70
2022-08-04T17:01:48.934Z,2.35
2022-08-04T17:04:19.186Z,2.35
2022-08-04T17:06:49.614Z,1.85
2022-08-04T17:09:28.155Z,2.40
2022-08-04T17:12:02.239Z,2.55
2022-08-04T17:14:34.838Z,2.70
2022-08-04T17:17:08.920Z,3.00
2022-08-04T17:19:38.810Z,2.40
2022-08-04T17:22:10.588Z,3.08
2022-08-04T17:24:43.425Z,3.15
2022-08-04T17:28:08.539Z,3.20
2022-08-04T17:30:04.443Z,3.30
2022-08-04T17:32:34.241Z,3.20
2022-08-04T17:35:04.284Z,2.03
2022-08-04T17:37:39.330Z,1.90
2022-08-04T17:40:18.679Z,2.05
2022-08-04T17:42:52.961Z,1.95
2022-08-04T17:45:53.244Z,2.22
2022-08-04T17:48:24.715Z,1.85
2022-08-04T17:50:55.117Z,3.05
2022-08-04T17:54:01.873Z,2.28
2022-08-04T17:56:36.250Z,2.10
2022-08-04T17:59:55.402Z,2.28
2022-08-04T18:02:08.964Z,2.25
2022-08-04T18:05:06.285Z,1.92
2022-08-04T18:08:39.152Z,1.75
2022-08-04T18:10:44.606Z,2.15
2022-08-04T18:13:29.229Z,1.80
2022-08-04T18:16:10.062Z,1.80
2022-08-04T18:21:34.242Z,2.10
2022-08-04T18:24:17.543Z,1.92
2022-08-04T18:26:47.306Z,1.80
2022-08-04T18:29:31.133Z,1.77
2022-08-04T18:32:01.824Z,1.70
2022-08-04T18:34:31.548Z,1.42
2022-08-04T18:37:01.479Z,1.88
2022-08-04T18:40:21.374Z,1.77
2022-08-04T18:42:41.195Z,1.80
2022-08-04T18:45:14.023Z,1.80
2022-08-04T18:47:58.468Z,1.95
2022-08-04T18:50:59.577Z,1.70
2022-08-04T18:53:19.467Z,1.73
2022-08-04T18:55:56.111Z,2.00
2022-08-04T18:58:27.980Z,1.98
2022-08-04T19:01:01.326Z,1.70
2022-08-04T19:03:33.067Z,1.90
2022-08-04T19:06:04.364Z,1.60
2022-08-04T19:08:42.409Z,1.95
2022-08-04T19:11:28.675Z,1.70
2022-08-04T19:14:04.620Z,1.77
2022-08-04T19:16:38.217Z,2.00
2022-08-04T19:19:10.648Z,1.90
2022-08-04T19:21:59.524Z,1.50
2022-08-04T19:27:19.877Z,1.70
2022-08-04T19:29:49.603Z,1.60
2022-08-04T19:32:22.005Z,1.73
2022-08-04T19:34:53.867Z,1.35
2022-08-04T19:37:57.032Z,1.80
2022-08-04T19:40:15.924Z,2.03
2022-08-04T19:43:14.474Z,1.60
2022-08-04T19:45:45.921Z,1.95
2022-08-04T19:48:20.018Z,1.65
2022-08-04T19:50:50.292Z,1.80
2022-08-04T19:53:36.911Z,1.67
2022-08-04T19:56:08.101Z,1.92
2022-08-04T19:58:38.672Z,1.63
2022-08-04T20:01:30.373Z,1.50
2022-08-04T20:04:10.069Z,1.80
2022-08-04T20:06:41.017Z,1.30
2022-08-04T20:09:24.964Z,1.50
2022-08-04T20:11:56.198Z,1.80
2022-08-04T20:14:32.512Z,1.70
2022-08-04T20:17:10.431Z,1.60
2022-08-04T20:19:51.468Z,1.27
2022-08-04T20:22:50.629Z,1.45
2022-08-04T20:25:35.613Z,1.40
2022-08-04T20:28:03.249Z,1.60
2022-08-04T20:30:33.636Z,1.42
2022-08-04T20:33:04.040Z,1.30
2022-08-04T20:36:03.597Z,1.33
2022-08-04T20:38:33.494Z,1.63
2022-08-04T20:41:04.216Z,1.33
2022-08-04T20:43:34.642Z,1.40
2022-08-04T20:46:18.551Z,1.30
2022-08-04T20:48:54.224Z,1.40
2022-08-04T20:51:31.954Z,1.30
2022-08-04T20:54:16.905Z,2.00
2022-08-04T20:56:55.539Z,1.27
2022-08-04T20:59:25.247Z,1.58
2022-08-04T21:01:57.070Z,1.67
2022-08-04T21:04:35.891Z,1.40
2022-08-04T21:07:10.489Z,1.45
2022-08-04T21:09:50.551Z,1.80
2022-08-04T21:12:27.695Z,1.58
2022-08-04T21:15:13.650Z,1.60
2022-08-04T21:20:42.393Z,1.50
2022-08-04T21:23:15.545Z,1.48
2022-08-04T21:25:49.876Z,1.48
2022-08-04T21:28:20.744Z,1.52
2022-08-04T21:30:54.311Z,1.60
2022-08-04T21:33:49.801Z,1.42
2022-08-04T21:36:16.060Z,1.80
2022-08-04T21:38:52.758Z,1.67
2022-08-04T21:44:12.852Z,1.75
2022-08-04T21:46:44.872Z,1.63
2022-08-04T21:49:14.709Z,1.50
2022-08-04T21:52:00.444Z,1.73
2022-08-04T21:54:33.920Z,1.83
2022-08-04T21:57:03.814Z,1.48
2022-08-04T21:59:45.233Z,1.50
2022-08-04T22:02:15.892Z,2.13
2022-08-04T22:04:46.048Z,1.67
2022-08-04T22:07:16.627Z,1.88
2022-08-04T22:10:02.306Z,2.10
2022-08-04T22:12:33.769Z,1.55
2022-08-04T22:15:23.280Z,1.38
2022-08-04T22:17:54.482Z,1.77
2022-08-04T22:20:27.604Z,1.58
2022-08-04T22:23:06.152Z,1.50
2022-08-04T22:25:55.714Z,1.58
2022-08-04T22:28:28.559Z,1.73
2022-08-04T22:30:58.963Z,1.52
2022-08-04T22:33:53.952Z,1.60
2022-08-04T22:36:19.473Z,1.90
2022-08-04T22:38:53.579Z,1.70
2022-08-04T22:41:33.805Z,1.60
2022-08-04T22:44:04.227Z,1.70
2022-08-04T22:46:33.939Z,1.58
2022-08-04T22:49:03.693Z,1.50
2022-08-04T22:51:33.423Z,1.70
2022-08-04T22:54:12.340Z,1.60
2022-08-04T22:56:45.692Z,1.95
2022-08-04T22:59:15.764Z,1.60
2022-08-04T23:02:00.649Z,1.52
2022-08-04T23:04:32.580Z,1.50
2022-08-04T23:07:05.163Z,1.70
2022-08-04T23:09:49.043Z,1.40
2022-08-04T23:12:25.967Z,1.45
2022-08-04T23:14:56.890Z,1.50
2022-08-04T23:17:27.815Z,1.60
2022-08-04T23:19:59.120Z,1.40
2022-08-04T23:22:41.320Z,1.65
2022-08-04T23:25:16.398Z,1.70
2022-08-04T23:27:51.693Z,1.70
2022-08-04T23:30:24.692Z,1.75
2022-08-04T23:32:59.202Z,1.60
2022-08-04T23:35:29.188Z,1.80
2022-08-04T23:37:59.846Z,1.63
2022-08-04T23:40:33.372Z,1.70
2022-08-04T23:43:12.384Z,1.45
2022-08-04T23:46:05.107Z,1.50
2022-08-04T23:48:39.166Z,1.50
2022-08-04T23:51:15.046Z,1.90
2022-08-04T23:54:02.507Z,2.17
2022-08-04T23:56:34.730Z,1.55
2022-08-04T23:59:18.065Z,1.55
